Time;durP1;ratioP1;P1;durP2;ratioP2;P2;SDS_P1;SDS_P2;PMS_P1;PMS_P2;Temp;Humidity;BMP_temperature;BMP_pressure;BME280_temperature;BME280_humidity;BME280_pressure;Samples;Min_cycle;Max_cycle;Signal;HPM_P1;HPM_P2
2023/05/14 00:01:41;;;;;;;6.10;5.07;;;;;;;13.54;nan;99460.28;5047830;28;20342;-81
2023/05/14 00:04:06;;;;;;;5.67;4.80;;;;;;;13.47;nan;99449.34;5046534;28;20250;-81
2023/05/14 00:06:31;;;;;;;8.77;5.30;;;;;;;13.41;nan;99448.03;5045986;28;20244;-81
2023/05/14 00:08:57;;;;;;;5.07;4.03;;;;;;;13.35;nan;99437.97;5047939;28;20216;-81
2023/05/14 00:11:22;;;;;;;6.47;5.23;;;;;;;13.34;nan;99448.63;5046271;28;20216;-81
2023/05/14 00:13:49;;;;;;;5.40;4.80;;;;;;;13.32;nan;99442.66;5046576;28;20304;-81
2023/05/14 00:16:14;;;;;;;5.63;4.80;;;;;;;13.30;nan;99449.84;5047461;28;20245;-81
2023/05/14 00:18:40;;;;;;;4.20;3.83;;;;;;;13.28;nan;99445.53;5045455;28;20250;-81
2023/05/14 00:21:05;;;;;;;6.10;4.67;;;;;;;13.25;nan;99435.16;5029675;28;20701;-81
2023/05/14 00:23:31;;;;;;;7.10;6.03;;;;;;;13.19;nan;99437.47;5046637;28;20301;-81
2023/05/14 00:25:56;;;;;;;8.40;4.73;;;;;;;13.17;nan;99434.09;5045783;28;20706;-81
2023/05/14 00:28:22;;;;;;;4.40;4.00;;;;;;;13.17;nan;99440.19;5047733;28;20399;-81
2023/05/14 00:30:47;;;;;;;6.33;5.40;;;;;;;13.21;nan;99430.28;5030999;28;20804;-81
2023/05/14 00:33:14;;;;;;;5.18;4.68;;;;;;;13.23;nan;99426.56;5045535;28;20507;-81
2023/05/14 00:35:39;;;;;;;7.87;5.20;;;;;;;13.27;nan;99424.53;5027494;28;20499;-81
2023/05/14 00:38:05;;;;;;;5.50;4.33;;;;;;;13.27;nan;99427.19;5046742;28;20760;-81
2023/05/14 00:40:30;;;;;;;5.93;4.60;;;;;;;13.26;nan;99420.25;5046399;28;20220;-81
2023/05/14 00:42:56;;;;;;;4.63;4.23;;;;;;;13.18;nan;99423.44;5047039;28;20306;-81
2023/05/14 00:45:21;;;;;;;6.63;5.27;;;;;;;13.14;nan;99419.34;5029898;28;20231;-81
2023/05/14 00:47:48;;;;;;;5.60;3.90;;;;;;;13.11;nan;99421.38;5049967;28;20217;-81
2023/05/14 00:50:15;;;;;;;5.63;4.68;;;;;;;13.01;nan;99416.81;5050253;28;20237;-81
2023/05/14 00:52:40;;;;;;;4.10;3.70;;;;;;;12.89;nan;99428.31;5049041;28;20212;-81
2023/05/14 00:55:07;;;;;;;7.10;5.70;;;;;;;12.77;nan;99424.81;5046848;28;20839;-81
2023/05/14 00:57:33;;;;;;;5.38;4.65;;;;;;;12.66;nan;99418.66;5048620;28;20464;-81
2023/05/14 01:00:00;;;;;;;5.47;5.07;;;;;;;12.53;nan;99421.34;5028657;28;20216;-81
2023/05/14 01:02:25;;;;;;;5.70;5.05;;;;;;;12.44;nan;99417.63;5046891;28;20211;-81
2023/05/14 01:04:51;;;;;;;5.67;4.70;;;;;;;12.35;nan;99419.16;5047532;28;20513;-81
2023/05/14 01:07:29;;;;;;;5.63;5.13;;;;;;;12.27;nan;99428.56;5048614;28;20817;-81
2023/05/14 01:10:32;;;;;;;4.85;4.40;;;;;;;12.20;nan;99424.69;5030197;28;20227;-81
2023/05/14 01:13:13;;;;;;;6.03;4.30;;;;;;;12.15;nan;99422.41;5048285;28;20802;-81
2023/05/14 01:15:39;;;;;;;5.40;4.40;;;;;;;12.14;nan;99423.34;5014435;28;20378;-81
2023/05/14 01:18:09;;;;;;;4.40;4.00;;;;;;;12.12;nan;99418.22;5045976;28;20290;-81
2023/05/14 01:20:36;;;;;;;6.60;4.38;;;;;;;12.10;nan;99414.84;5029254;28;20824;-81
2023/05/14 01:23:02;;;;;;;5.17;4.10;;;;;;;12.10;nan;99419.28;5046649;28;20278;-81
2023/05/14 01:25:28;;;;;;;4.45;4.03;;;;;;;12.08;nan;99416.75;5047583;28;20712;-81
2023/05/14 01:28:10;;;;;;;6.88;5.93;;;;;;;12.05;nan;99416.97;5047621;28;20654;-81
2023/05/14 01:30:43;;;;;;;4.63;4.22;;;;;;;12.07;nan;99422.97;5048011;28;20343;-81
2023/05/14 01:33:12;;;;;;;5.65;4.03;;;;;;;12.11;nan;99416.53;5029048;28;20241;-81
2023/05/14 01:35:38;;;;;;;5.95;5.05;;;;;;;12.15;nan;99412.72;5046888;28;20219;-81
2023/05/14 01:38:06;;;;;;;8.13;5.40;;;;;;;12.18;nan;99412.50;5029968;28;20210;-81
2023/05/14 01:40:32;;;;;;;8.52;4.75;;;;;;;12.22;nan;99412.28;5043702;28;20298;-81
2023/05/14 01:42:59;;;;;;;6.07;4.75;;;;;;;12.27;nan;99418.03;5045475;28;20278;-81
2023/05/14 01:45:25;;;;;;;5.05;4.55;;;;;;;12.33;nan;99409.69;5044534;28;20262;-81
2023/05/14 01:47:50;;;;;;;6.43;5.30;;;;;;;12.33;nan;99417.56;5013896;28;20248;-81
2023/05/14 01:50:16;;;;;;;6.13;4.70;;;;;;;12.31;nan;99408.94;5029035;28;20371;-81
2023/05/14 01:52:42;;;;;;;4.93;4.33;;;;;;;12.32;nan;99410.66;5026596;28;20557;-81
2023/05/14 01:55:07;;;;;;;5.33;4.80;;;;;;;12.34;nan;99422.75;5046628;28;20224;-81
2023/05/14 01:57:33;;;;;;;7.50;6.70;;;;;;;12.37;nan;99414.63;5044888;28;20832;-81
2023/05/14 01:59:58;;;;;;;6.70;5.30;;;;;;;12.42;nan;99418.69;5027926;28;20475;-81
2023/05/14 02:02:23;;;;;;;6.43;4.80;;;;;;;12.45;nan;99418.44;5028391;28;20253;-81
2023/05/14 02:04:49;;;;;;;6.50;5.22;;;;;;;12.49;nan;99409.38;5027150;28;20855;-81
2023/05/14 02:07:14;;;;;;;6.40;5.33;;;;;;;12.51;nan;99418.03;5052312;28;20231;-83
2023/05/14 02:09:40;;;;;;;6.10;5.50;;;;;;;12.52;nan;99411.78;5052454;28;20224;-84
2023/05/14 02:12:07;;;;;;;6.20;4.80;;;;;;;12.50;nan;99411.91;5055406;28;20216;-84
2023/05/14 02:14:33;;;;;;;5.63;5.13;;;;;;;12.46;nan;99412.25;5034964;28;20211;-85
2023/05/14 02:16:58;;;;;;;8.03;5.10;;;;;;;12.43;nan;99415.13;5055843;28;20222;-85
2023/05/14 02:19:24;;;;;;;5.83;4.80;;;;;;;12.41;nan;99415.22;5056362;28;20235;-84
2023/05/14 02:21:49;;;;;;;4.50;4.10;;;;;;;12.40;nan;99416.19;5043703;28;20227;-86
2023/05/14 02:24:15;;;;;;;6.10;4.80;;;;;;;12.42;nan;99413.41;5061365;28;20226;-83
2023/05/14 02:26:41;;;;;;;4.90;4.43;;;;;;;12.42;nan;99408.97;5057221;28;20776;-85
2023/05/14 02:29:06;;;;;;;5.70;4.50;;;;;;;12.45;nan;99411.41;5055475;28;20224;-83
2023/05/14 02:31:32;;;;;;;5.30;4.53;;;;;;;12.49;nan;99404.94;5058054;28;20586;-82
2023/05/14 02:33:57;;;;;;;6.77;6.17;;;;;;;12.56;nan;99406.19;5037629;28;20478;-84
2023/05/14 02:36:23;;;;;;;6.00;5.40;;;;;;;12.69;nan;99405.25;5053669;28;20501;-85
2023/05/14 02:38:48;;;;;;;5.00;4.50;;;;;;;12.72;nan;99397.97;5056696;28;20265;-82
2023/05/14 02:41:14;;;;;;;6.00;5.40;;;;;;;12.74;nan;99398.66;5037857;28;20202;-86
2023/05/14 02:43:40;;;;;;;5.83;5.00;;;;;;;12.78;nan;99407.19;5058190;28;20221;-85
2023/05/14 02:46:06;;;;;;;4.57;4.15;;;;;;;12.78;nan;99394.00;5056195;28;20445;-85
2023/05/14 02:48:32;;;;;;;6.63;5.37;;;;;;;12.78;nan;99400.13;5054407;28;20224;-84
2023/05/14 02:50:57;;;;;;;5.90;5.30;;;;;;;12.79;nan;99399.16;5036973;28;20519;-84
2023/05/14 02:53:23;;;;;;;6.60;4.00;;;;;;;12.80;nan;99398.22;5055576;28;20291;-84
2023/05/14 02:55:48;;;;;;;4.77;4.33;;;;;;;12.74;nan;99403.09;5053842;28;20225;-83
2023/05/14 02:58:14;;;;;;;4.37;3.80;;;;;;;12.69;nan;99407.88;5041056;28;20914;-83
2023/05/14 03:00:39;;;;;;;4.80;4.20;;;;;;;12.65;nan;99404.63;5044560;28;20218;-85
2023/05/14 03:03:04;;;;;;;6.60;4.83;;;;;;;12.65;nan;99404.63;5042525;28;20220;-85
2023/05/14 03:05:30;;;;;;;6.63;5.80;;;;;;;12.70;nan;99404.31;5033521;28;20474;-82
2023/05/14 03:07:55;;;;;;;5.53;4.90;;;;;;;12.71;nan;99403.34;5049847;28;20633;-83
2023/05/14 03:10:21;;;;;;;6.97;5.40;;;;;;;12.71;nan;99392.78;5032235;28;20647;-85
2023/05/14 03:12:46;;;;;;;6.37;4.87;;;;;;;12.70;nan;99396.41;5050628;28;20220;-85
2023/05/14 03:15:11;;;;;;;7.47;5.77;;;;;;;12.68;nan;99396.50;5032732;28;20220;-85
2023/05/14 03:17:37;;;;;;;6.30;4.83;;;;;;;12.67;nan;99401.91;5047382;28;20386;-82
2023/05/14 03:20:02;;;;;;;5.47;4.40;;;;;;;12.66;nan;99397.56;5029543;28;20242;-83
2023/05/14 03:22:28;;;;;;;6.63;4.80;;;;;;;12.67;nan;99404.53;5040509;28;20322;-83
2023/05/14 03:24:53;;;;;;;5.87;4.97;;;;;;;12.66;nan;99400.19;5034471;28;20256;-83
2023/05/14 03:27:19;;;;;;;7.13;4.53;;;;;;;12.61;nan;99404.03;5041644;28;20210;-82
2023/05/14 03:29:45;;;;;;;5.10;4.43;;;;;;;12.55;nan;99399.22;5033637;28;20267;-86
2023/05/14 03:32:10;;;;;;;5.63;4.90;;;;;;;12.53;nan;99401.16;5057466;28;20466;-81
2023/05/14 03:34:36;;;;;;;7.00;5.40;;;;;;;12.52;nan;99399.44;5038265;28;20527;-84
2023/05/14 03:37:01;;;;;;;6.17;5.57;;;;;;;12.49;nan;99399.69;5038809;28;20394;-85
2023/05/14 03:39:27;;;;;;;6.20;4.90;;;;;;;12.54;nan;99397.53;5037335;28;20200;-85
2023/05/14 03:41:52;;;;;;;6.30;5.13;;;;;;;12.59;nan;99394.56;5054720;28;20223;-85
2023/05/14 03:44:18;;;;;;;5.23;4.50;;;;;;;12.60;nan;99393.59;5038053;28;20214;-84
2023/05/14 03:46:43;;;;;;;6.60;4.83;;;;;;;12.60;nan;99397.06;5038702;28;20232;-84
2023/05/14 03:49:08;;;;;;;8.27;5.80;;;;;;;12.65;nan;99385.34;5056602;28;20219;-83
2023/05/14 03:51:34;;;;;;;7.83;4.83;;;;;;;12.69;nan;99392.06;5057721;28;20227;-84
2023/05/14 03:54:00;;;;;;;6.27;4.43;;;;;;;12.71;nan;99392.78;5055688;28;20841;-85
2023/05/14 03:56:26;;;;;;;6.22;5.55;;;;;;;12.73;nan;99390.88;5043419;28;20235;-83
2023/05/14 03:58:51;;;;;;;6.50;4.93;;;;;;;12.76;nan;99391.47;5041101;28;20688;-83
2023/05/14 04:01:17;;;;;;;6.80;4.90;;;;;;;12.79;nan;99395.69;5043742;28;20351;-86
2023/05/14 04:03:42;;;;;;;6.73;6.03;;;;;;;12.87;nan;99408.28;5038172;28;20799;-83
2023/05/14 04:06:08;;;;;;;6.33;5.73;;;;;;;12.91;nan;99405.31;5035703;28;20549;-86
2023/05/14 04:08:34;;;;;;;5.73;5.00;;;;;;;12.90;nan;99408.03;5055348;28;20232;-86
2023/05/14 04:10:59;;;;;;;8.33;5.47;;;;;;;12.90;nan;99403.59;5039393;28;20332;-85
2023/05/14 04:13:24;;;;;;;8.33;5.33;;;;;;;12.93;nan;99408.63;5054673;28;20197;-85
2023/05/14 04:15:50;;;;;;;6.30;5.70;;;;;;;12.94;nan;99402.44;5036671;28;20229;-82
2023/05/14 04:18:16;;;;;;;5.70;4.87;;;;;;;12.95;nan;99405.91;5039079;28;20704;-84
2023/05/14 04:20:41;;;;;;;8.47;6.30;;;;;;;12.94;nan;99405.06;5038836;28;20207;-82
2023/05/14 04:23:07;;;;;;;6.10;5.53;;;;;;;12.91;nan;99402.66;5037431;28;20551;-85
2023/05/14 04:25:32;;;;;;;5.47;4.47;;;;;;;12.90;nan;99400.13;5053210;28;20219;-83
2023/05/14 04:27:58;;;;;;;6.63;5.67;;;;;;;12.87;nan;99403.84;5054524;28;20217;-83
2023/05/14 04:30:23;;;;;;;5.50;5.00;;;;;;;12.88;nan;99408.19;5054446;28;20700;-82
2023/05/14 04:32:48;;;;;;;5.77;4.47;;;;;;;12.93;nan;99403.38;5053682;28;20239;-84
2023/05/14 04:35:14;;;;;;;6.27;5.40;;;;;;;12.95;nan;99406.72;5054029;28;20302;-86
2023/05/14 04:37:40;;;;;;;4.60;4.20;;;;;;;12.93;nan;99406.00;5053901;28;20514;-86
2023/05/14 04:40:06;;;;;;;7.00;5.20;;;;;;;12.91;nan;99410.56;5053322;28;20446;-85
2023/05/14 04:42:32;;;;;;;5.72;4.80;;;;;;;12.91;nan;99409.72;5053159;28;20298;-83
2023/05/14 04:44:58;;;;;;;11.60;6.13;;;;;;;12.91;nan;99410.56;5050063;28;20238;-81
2023/05/14 04:47:23;;;;;;;6.97;6.03;;;;;;;12.92;nan;99406.97;5050253;28;20454;-82
2023/05/14 04:49:49;;;;;;;6.53;5.50;;;;;;;12.94;nan;99404.22;5052961;28;20245;-83
2023/05/14 04:52:14;;;;;;;6.50;5.37;;;;;;;12.92;nan;99404.34;5051723;28;20214;-82
2023/05/14 04:54:40;;;;;;;6.23;5.63;;;;;;;12.90;nan;99408.03;5052190;28;20222;-83
2023/05/14 04:57:06;;;;;;;8.13;5.10;;;;;;;12.91;nan;99407.94;5051819;28;20246;-81
2023/05/14 04:59:31;;;;;;;6.20;5.47;;;;;;;12.95;nan;99405.91;5056043;28;20755;-85
2023/05/14 05:01:57;;;;;;;7.20;6.50;;;;;;;12.98;nan;99413.56;5063014;28;20364;-85
2023/05/14 05:04:22;;;;;;;7.90;6.17;;;;;;;12.98;nan;99411.75;5059074;28;20092;-85
2023/05/14 05:06:49;;;;;;;6.13;5.50;;;;;;;12.97;nan;99415.38;5062974;28;20588;-85
2023/05/14 05:09:15;;;;;;;7.38;6.63;;;;;;;13.00;nan;99409.03;5063010;28;20477;-83
2023/05/14 05:11:40;;;;;;;8.77;6.40;;;;;;;13.01;nan;99408.88;5058756;28;20236;-84
2023/05/14 05:14:06;;;;;;;7.40;5.90;;;;;;;13.02;nan;99407.13;5059487;28;20473;-83
2023/05/14 05:16:31;;;;;;;6.47;5.30;;;;;;;13.06;nan;99404.09;5058896;28;20219;-84
2023/05/14 05:18:56;;;;;;;6.57;5.10;;;;;;;13.10;nan;99407.38;5060389;28;20308;-84
2023/05/14 05:21:22;;;;;;;7.03;5.47;;;;;;;13.12;nan;99408.06;5061000;28;20209;-83
2023/05/14 05:23:47;;;;;;;10.83;5.40;;;;;;;13.16;nan;99413.97;5060536;28;20212;-83
2023/05/14 05:26:13;;;;;;;6.73;6.13;;;;;;;13.21;nan;99419.72;5043266;28;20522;-82
2023/05/14 05:28:38;;;;;;;6.50;5.90;;;;;;;13.21;nan;99422.34;5056949;28;20212;-83
2023/05/14 05:31:04;;;;;;;6.20;5.60;;;;;;;13.20;nan;99418.03;5058771;28;20231;-86
2023/05/14 05:33:29;;;;;;;6.53;5.33;;;;;;;13.22;nan;99418.75;5056306;28;20273;-84
2023/05/14 05:35:55;;;;;;;9.10;6.22;;;;;;;13.30;nan;99420.81;5057397;28;20506;-83
2023/05/14 05:38:20;;;;;;;8.13;5.50;;;;;;;13.28;nan;99420.94;5057650;28;20220;-84
2023/05/14 05:40:46;;;;;;;6.37;5.60;;;;;;;13.30;nan;99415.56;5057476;28;20205;-84
2023/05/14 05:43:13;;;;;;;6.45;5.60;;;;;;;13.37;nan;99422.88;5054375;28;20211;-82
2023/05/14 05:45:38;;;;;;;7.00;5.95;;;;;;;13.47;nan;99415.91;5055973;28;20224;-85
2023/05/14 05:48:04;;;;;;;5.77;5.17;;;;;;;13.60;nan;99418.41;5054211;28;20245;-85
2023/05/14 05:50:30;;;;;;;6.00;5.40;;;;;;;13.72;nan;99411.34;5051240;28;20286;-84
2023/05/14 05:52:58;;;;;;;7.18;5.75;;;;;;;13.83;nan;99419.22;5051716;28;20224;-85
2023/05/14 05:55:23;;;;;;;5.75;5.25;;;;;;;13.93;nan;99414.03;5052772;28;20214;-86
2023/05/14 05:57:49;;;;;;;6.57;5.60;;;;;;;14.00;nan;99417.88;5051806;28;20869;-84
2023/05/14 06:00:15;;;;;;;9.67;7.10;;;;;;;14.05;nan;99414.88;5052039;28;20457;-85
2023/05/14 06:02:42;;;;;;;8.70;7.13;;;;;;;14.08;nan;99417.25;5050419;28;20226;-85
2023/05/14 06:05:08;;;;;;;5.65;5.13;;;;;;;14.14;nan;99417.56;5050750;28;20234;-82
2023/05/14 06:07:34;;;;;;;9.05;6.40;;;;;;;14.20;nan;99416.22;5054165;28;20704;-80
2023/05/14 06:10:00;;;;;;;9.47;8.57;;;;;;;14.25;nan;99416.69;5039218;28;20225;-83
2023/05/14 06:12:25;;;;;;;8.33;7.10;;;;;;;14.31;nan;99425.94;5053537;28;20975;-84
2023/05/14 06:14:54;;;;;;;8.27;6.63;;;;;;;14.33;nan;99418.72;5058684;28;20227;-86
2023/05/14 06:17:20;;;;;;;10.45;9.35;;;;;;;14.36;nan;99426.38;5056277;28;20418;-85
2023/05/14 06:19:46;;;;;;;7.73;6.80;;;;;;;14.36;nan;99416.66;5054927;28;20219;-82
2023/05/14 06:22:13;;;;;;;9.85;8.05;;;;;;;14.36;nan;99416.66;5052454;28;20988;-85
2023/05/14 06:24:38;;;;;;;9.75;8.18;;;;;;;14.38;nan;99420.00;5049872;28;20700;-82
2023/05/14 06:27:04;;;;;;;9.53;7.40;;;;;;;14.39;nan;99420.84;5050180;28;20238;-84
2023/05/14 06:29:29;;;;;;;17.43;7.77;;;;;;;14.43;nan;99413.53;5053652;28;20741;-81
2023/05/14 06:32:00;;;;;;;8.20;7.00;;;;;;;14.50;nan;99412.91;5049731;28;20215;-86
2023/05/14 06:34:25;;;;;;;8.25;7.32;;;;;;;14.58;nan;99415.78;5052690;28;20585;-85
2023/05/14 06:36:51;;;;;;;8.80;7.50;;;;;;;14.66;nan;99412.47;5052718;28;20228;-81
2023/05/14 06:39:16;;;;;;;7.67;6.90;;;;;;;14.83;nan;99422.47;5051801;28;20203;-84
2023/05/14 06:41:41;;;;;;;9.30;8.03;;;;;;;15.14;nan;99408.44;5051811;28;20295;-85
2023/05/14 06:44:12;;;;;;;8.10;7.30;;;;;;;15.61;nan;99408.78;5032710;28;20233;-85
2023/05/14 06:46:38;;;;;;;9.03;6.30;;;;;;;16.24;nan;99401.41;5052922;28;20216;-82
2023/05/14 06:49:04;;;;;;;9.77;7.63;;;;;;;17.05;nan;99395.75;5052317;28;20463;-87
2023/05/14 06:51:29;;;;;;;6.73;6.03;;;;;;;17.52;nan;99395.69;5053317;28;20235;-85
2023/05/14 06:53:54;;;;;;;6.20;5.60;;;;;;;17.67;nan;99391.56;5053579;28;20299;-84
2023/05/14 06:56:21;;;;;;;9.00;6.17;;;;;;;17.64;nan;99393.69;5033988;28;20204;-84
2023/05/14 06:58:47;;;;;;;9.00;6.55;;;;;;;17.60;nan;99401.09;5051649;28;20838;-86
2023/05/14 07:01:12;;;;;;;6.57;5.97;;;;;;;17.59;nan;99398.59;5051887;28;20206;-86
2023/05/14 07:03:38;;;;;;;8.90;6.70;;;;;;;17.56;nan;99394.44;5057129;28;20801;-84
2023/05/14 07:06:03;;;;;;;8.00;7.20;;;;;;;17.51;nan;99393.19;5054449;28;20938;-85
2023/05/14 07:08:29;;;;;;;9.70;6.87;;;;;;;17.35;nan;99399.13;5052402;28;20266;-82
2023/05/14 07:10:55;;;;;;;7.77;5.60;;;;;;;17.29;nan;99403.22;5052180;28;20244;-83
2023/05/14 07:13:20;;;;;;;9.15;6.70;;;;;;;17.30;nan;99393.41;5048043;28;20225;-85
2023/05/14 07:15:45;;;;;;;10.80;8.37;;;;;;;17.29;nan;99392.59;5049834;28;20245;-86
2023/05/14 07:18:11;;;;;;;7.60;6.80;;;;;;;17.26;nan;99400.84;5030325;28;20271;-84
2023/05/14 07:20:36;;;;;;;7.70;6.47;;;;;;;17.26;nan;99403.50;5028058;28;20207;-83
2023/05/14 07:23:02;;;;;;;8.23;6.93;;;;;;;17.24;nan;99400.16;5028966;28;20211;-82
2023/05/14 07:25:27;;;;;;;10.13;6.63;;;;;;;17.26;nan;99390.22;5049073;28;20254;-83
2023/05/14 07:27:52;;;;;;;10.30;7.60;;;;;;;17.28;nan;99390.06;5051354;28;20210;-82
2023/05/14 07:30:18;;;;;;;8.97;8.07;;;;;;;17.26;nan;99392.88;5050994;28;20601;-83
2023/05/14 07:32:43;;;;;;;8.90;7.47;;;;;;;17.22;nan;99389.66;5052131;28;20231;-83
2023/05/14 07:35:10;;;;;;;9.53;7.80;;;;;;;17.24;nan;99386.88;5050781;28;20425;-83
2023/05/14 07:37:36;;;;;;;8.63;7.73;;;;;;;17.29;nan;99391.75;5052536;28;20986;-84
2023/05/14 07:40:02;;;;;;;9.93;7.88;;;;;;;17.30;nan;99394.25;5056181;28;20621;-82
2023/05/14 07:42:27;;;;;;;8.03;7.10;;;;;;;17.30;nan;99388.13;5054878;28;20218;-84
2023/05/14 07:44:52;;;;;;;8.10;7.30;;;;;;;17.28;nan;99390.91;5059552;28;20212;-85
2023/05/14 07:47:18;;;;;;;8.10;7.30;;;;;;;17.29;nan;99387.28;5057035;28;20427;-86
2023/05/14 07:49:43;;;;;;;8.80;7.27;;;;;;;17.35;nan;99385.84;5033728;28;20227;-84
2023/05/14 07:52:09;;;;;;;9.07;8.17;;;;;;;17.37;nan;99387.38;5034078;28;20231;-82
2023/05/14 07:54:34;;;;;;;9.13;8.23;;;;;;;17.43;nan;99383.31;5050998;28;20274;-85
2023/05/14 07:56:59;;;;;;;10.07;9.17;;;;;;;17.45;nan;99379.53;5052111;28;20225;-85
2023/05/14 07:59:25;;;;;;;11.40;7.93;;;;;;;17.49;nan;99382.72;5050859;28;20207;-83
2023/05/14 08:01:50;;;;;;;11.73;8.83;;;;;;;17.60;nan;99384.34;5048948;28;20242;-83
2023/05/14 08:04:16;;;;;;;10.40;9.40;;;;;;;17.78;nan;99385.22;5049837;28;20262;-84
2023/05/14 08:06:42;;;;;;;10.93;8.25;;;;;;;18.03;nan;99383.66;5050213;28;20446;-84
2023/05/14 08:09:08;;;;;;;11.07;9.77;;;;;;;18.24;nan;99393.19;5049288;28;20219;-83
2023/05/14 08:11:33;;;;;;;11.75;9.30;;;;;;;18.39;nan;99385.50;5030015;28;20303;-85
2023/05/14 08:13:59;;;;;;;14.47;10.20;;;;;;;18.57;nan;99386.31;5047707;28;20243;-86
2023/05/14 08:16:25;;;;;;;10.23;9.23;;;;;;;18.71;nan;99380.47;5047476;28;20219;-85
2023/05/14 08:18:50;;;;;;;10.90;9.80;;;;;;;18.84;nan;99379.22;5050549;28;20358;-85
2023/05/14 08:21:16;;;;;;;10.37;9.27;;;;;;;18.93;nan;99380.94;5049401;28;20211;-83
2023/05/14 08:23:41;;;;;;;9.70;8.77;;;;;;;19.05;nan;99369.03;5048560;28;20219;-83
2023/05/14 08:26:07;;;;;;;11.93;9.73;;;;;;;19.03;nan;99371.03;5047560;28;20219;-83
2023/05/14 08:28:35;;;;;;;10.43;8.80;;;;;;;19.11;nan;99368.41;5047373;28;20220;-84
2023/05/14 08:31:00;;;;;;;11.67;9.60;;;;;;;19.11;nan;99365.75;5028007;28;20230;-83
2023/05/14 08:33:26;;;;;;;10.50;9.37;;;;;;;19.10;nan;99360.59;5048738;28;20720;-84
2023/05/14 08:35:52;;;;;;;13.00;10.10;;;;;;;19.08;nan;99355.41;5047803;28;20533;-85
2023/05/14 08:38:17;;;;;;;11.47;9.20;;;;;;;19.04;nan;99362.06;5048143;28;20217;-85
2023/05/14 08:40:55;;;;;;;10.50;9.30;;;;;;;18.90;nan;99357.31;5049043;28;20514;-84
2023/05/14 08:43:29;;;;;;;9.67;8.60;;;;;;;18.92;nan;99350.84;5048879;28;20217;-85
2023/05/14 08:45:59;;;;;;;9.23;8.20;;;;;;;18.94;nan;99351.53;5046862;28;20481;-83
2023/05/14 08:48:30;;;;;;;9.50;8.60;;;;;;;19.01;nan;99343.75;5046279;28;20568;-83
2023/05/14 08:50:57;;;;;;;9.07;8.17;;;;;;;19.07;nan;99352.94;5047445;28;20510;-83
2023/05/14 08:53:23;;;;;;;11.50;8.77;;;;;;;19.16;nan;99339.47;5046057;28;21035;-83
2023/05/14 08:55:50;;;;;;;8.50;7.70;;;;;;;19.26;nan;99342.03;5030709;28;20537;-83
2023/05/14 08:58:16;;;;;;;8.80;7.90;;;;;;;19.40;nan;99332.59;5047626;28;20213;-84
2023/05/14 09:00:41;;;;;;;10.53;8.87;;;;;;;19.59;nan;99329.66;5046925;28;20888;-84
2023/05/14 09:03:12;;;;;;;8.97;8.17;;;;;;;19.70;nan;99330.38;5049176;28;20206;-82
2023/05/14 09:05:39;;;;;;;7.97;7.18;;;;;;;19.66;nan;99328.06;5050637;28;20441;-79
2023/05/14 09:08:04;;;;;;;8.50;7.70;;;;;;;19.66;nan;99330.72;5042848;28;20230;-82
2023/05/14 09:10:31;;;;;;;9.00;7.77;;;;;;;19.72;nan;99323.06;5044796;28;20492;-82
2023/05/14 09:12:56;;;;;;;9.20;7.07;;;;;;;19.78;nan;99314.41;5041810;28;20205;-82
2023/05/14 09:15:23;;;;;;;7.03;6.43;;;;;;;19.93;nan;99318.13;5041478;28;20476;-82
2023/05/14 09:17:49;;;;;;;8.90;6.43;;;;;;;20.07;nan;99317.44;5042116;28;20690;-79
2023/05/14 09:20:15;;;;;;;6.50;5.83;;;;;;;20.13;nan;99315.94;5041994;28;20544;-82
2023/05/14 09:22:41;;;;;;;7.20;6.37;;;;;;;20.16;nan;99314.78;5043743;28;21126;-79
2023/05/14 09:25:09;;;;;;;7.80;7.00;;;;;;;20.22;nan;99311.44;5041542;28;21002;-79
2023/05/14 09:27:35;;;;;;;7.73;7.00;;;;;;;20.24;nan;99310.28;5043383;28;20247;-81
2023/05/14 09:30:18;;;;;;;7.67;6.80;;;;;;;20.29;nan;99301.78;5041436;28;20511;-82
2023/05/14 09:32:49;;;;;;;8.20;6.40;;;;;;;20.34;nan;99310.13;5042250;28;20193;-81
2023/05/14 09:35:20;;;;;;;7.45;6.65;;;;;;;20.41;nan;99303.09;5043067;28;20435;-80
2023/05/14 09:37:47;;;;;;;6.90;6.30;;;;;;;20.55;nan;99302.47;5043013;28;20205;-80
2023/05/14 09:40:13;;;;;;;7.73;7.00;;;;;;;20.71;nan;99296.25;5040783;28;20460;-83
2023/05/14 09:42:40;;;;;;;8.30;6.00;;;;;;;20.91;nan;99295.88;5040582;28;20460;-80
2023/05/14 09:45:07;;;;;;;5.30;4.80;;;;;;;21.04;nan;99290.81;5040711;28;20973;-79
2023/05/14 09:47:33;;;;;;;7.53;6.77;;;;;;;21.18;nan;99292.75;5023735;28;20835;-80
2023/05/14 09:49:58;;;;;;;7.17;6.47;;;;;;;21.40;nan;99291.19;5038757;28;20481;-79
2023/05/14 09:52:24;;;;;;;6.03;5.53;;;;;;;21.52;nan;99293.44;5021437;28;20209;-79
2023/05/14 09:54:51;;;;;;;6.00;5.50;;;;;;;21.65;nan;99296.38;5040345;28;20199;-83
2023/05/14 09:57:16;;;;;;;6.17;5.77;;;;;;;21.77;nan;99294.97;5041271;28;20525;-82
2023/05/14 09:59:42;;;;;;;5.40;4.90;;;;;;;21.80;nan;99297.28;5023949;28;20474;-82
2023/05/14 10:02:24;;;;;;;6.07;5.47;;;;;;;21.95;nan;99296.50;5026576;28;20211;-79
2023/05/14 10:04:51;;;;;;;6.22;5.63;;;;;;;22.05;nan;99279.22;5043791;28;20475;-83
2023/05/14 10:07:22;;;;;;;6.37;5.63;;;;;;;21.87;nan;99281.34;5046507;28;20793;-80
2023/05/14 10:09:47;;;;;;;4.70;4.17;;;;;;;21.67;nan;99285.53;5043951;28;20622;-78
2023/05/14 10:12:20;;;;;;;6.07;4.50;;;;;;;21.61;nan;99279.88;5046633;28;20938;-81
2023/05/14 10:14:48;;;;;;;5.30;4.80;;;;;;;21.54;nan;99278.91;5044609;28;20446;-80
2023/05/14 10:17:17;;;;;;;5.23;4.77;;;;;;;21.42;nan;99278.47;5047964;28;21050;-79
2023/05/14 10:19:49;;;;;;;6.00;4.70;;;;;;;21.24;nan;99277.88;5049428;28;20690;-79
2023/05/14 10:22:17;;;;;;;5.30;4.17;;;;;;;21.09;nan;99280.44;5049042;28;20457;-79
2023/05/14 10:24:44;;;;;;;5.20;4.80;;;;;;;20.96;nan;99277.50;5052465;28;21013;-81
2023/05/14 10:27:11;;;;;;;5.57;4.43;;;;;;;20.87;nan;99283.84;5048305;28;20508;-78
2023/05/14 10:29:37;;;;;;;12.33;5.57;;;;;;;20.85;nan;99273.38;5042848;28;20481;-78
2023/05/14 10:32:07;;;;;;;5.10;4.60;;;;;;;20.84;nan;99273.53;5046993;28;20446;-79
2023/05/14 10:34:39;;;;;;;5.00;4.60;;;;;;;20.78;nan;99270.53;5051408;28;20438;-80
2023/05/14 10:37:20;;;;;;;4.40;3.90;;;;;;;20.81;nan;99263.19;5033567;28;20204;-78
2023/05/14 10:39:48;;;;;;;4.03;3.73;;;;;;;20.89;nan;99258.66;5047114;28;20456;-81
2023/05/14 10:42:18;;;;;;;4.80;4.30;;;;;;;21.03;nan;99248.25;5014406;28;20476;-79
2023/05/14 10:44:49;;;;;;;4.53;4.13;;;;;;;21.15;nan;99257.56;5047264;28;20475;-81
2023/05/14 10:47:16;;;;;;;5.27;4.40;;;;;;;21.14;nan;99255.88;5046369;28;20454;-80
2023/05/14 10:49:44;;;;;;;5.97;4.30;;;;;;;21.06;nan;99250.56;5047547;28;20500;-78
2023/05/14 10:52:11;;;;;;;4.93;4.43;;;;;;;21.00;nan;99244.91;5049590;28;20523;-80
2023/05/14 10:54:36;;;;;;;4.90;3.57;;;;;;;21.02;nan;99239.41;5051935;28;20448;-80
2023/05/14 10:57:02;;;;;;;3.63;3.33;;;;;;;21.03;nan;99240.25;5053665;28;20544;-81
2023/05/14 10:59:28;;;;;;;5.10;4.60;;;;;;;20.99;nan;99245.94;5053983;28;20204;-81
2023/05/14 11:01:55;;;;;;;4.17;3.87;;;;;;;20.85;nan;99241.34;5051682;28;20203;-79
2023/05/14 11:04:26;;;;;;;4.60;4.20;;;;;;;20.80;nan;99237.53;5047738;28;20432;-81
2023/05/14 11:06:52;;;;;;;4.00;3.60;;;;;;;20.74;nan;99233.69;5048963;28;20930;-81
2023/05/14 11:09:20;;;;;;;4.10;3.80;;;;;;;20.70;nan;99230.53;5051794;28;20531;-82
2023/05/14 11:11:46;;;;;;;3.53;3.23;;;;;;;20.72;nan;99228.53;5050655;28;20459;-81
2023/05/14 11:14:12;;;;;;;3.30;3.00;;;;;;;20.71;nan;99226.00;5047137;28;21281;-80
2023/05/14 11:16:38;;;;;;;2.77;2.57;;;;;;;20.63;nan;99240.25;5050393;28;20981;-82
2023/05/14 11:19:03;;;;;;;4.10;3.70;;;;;;;20.51;nan;99236.22;5051360;28;20541;-81
2023/05/14 11:21:31;;;;;;;4.57;4.17;;;;;;;20.29;nan;99235.09;5049651;28;20488;-78
2023/05/14 11:23:58;;;;;;;4.27;3.97;;;;;;;20.09;nan;99240.81;5050966;28;20287;-80
2023/05/14 11:26:23;;;;;;;4.70;3.20;;;;;;;19.92;nan;99236.47;5052215;28;20799;-81
2023/05/14 11:28:49;;;;;;;3.37;3.07;;;;;;;19.80;nan;99238.63;5049443;28;20478;-81
2023/05/14 11:31:14;;;;;;;3.37;3.00;;;;;;;19.74;nan;99241.09;5049795;28;20216;-82
2023/05/14 11:33:40;;;;;;;4.00;3.60;;;;;;;19.70;nan;99231.78;5049044;28;20661;-81
2023/05/14 11:36:06;;;;;;;3.73;3.43;;;;;;;19.62;nan;99238.75;5028055;28;20217;-82
2023/05/14 11:38:31;;;;;;;3.67;3.37;;;;;;;19.54;nan;99241.38;5046058;28;20460;-82
2023/05/14 11:40:58;;;;;;;4.50;4.20;;;;;;;19.54;nan;99236.06;5044459;28;20199;-81
2023/05/14 11:43:27;;;;;;;4.30;3.90;;;;;;;19.57;nan;99234.91;5046166;28;21064;-80
2023/05/14 11:45:53;;;;;;;4.50;3.93;;;;;;;19.63;nan;99226.25;5030484;28;20550;-81